sensor_id;sensor_type;location;lat;lon;timestamp;temperature;humidity
1055;DHT22;516;51.482;7.120;2023-06-14T00:00:02;17.50;39.70
1055;DHT22;516;51.482;7.120;2023-06-14T00:05:51;17.60;37.70
1055;DHT22;516;51.482;7.120;2023-06-14T00:11:40;17.60;37.10
1055;DHT22;516;51.482;7.120;2023-06-14T00:17:29;17.50;37.00
1055;DHT22;516;51.482;7.120;2023-06-14T00:23:19;17.60;33.90
1055;DHT22;516;51.482;7.120;2023-06-14T00:29:07;17.60;31.50
1055;DHT22;516;51.482;7.120;2023-06-14T00:44:07;17.30;32.00
1055;DHT22;516;51.482;7.120;2023-06-14T00:49:56;17.30;33.10
1055;DHT22;516;51.482;7.120;2023-06-14T00:55:43;17.20;32.80
1055;DHT22;516;51.482;7.120;2023-06-14T01:01:31;17.20;29.50
1055;DHT22;516;51.482;7.120;2023-06-14T01:13:38;17.30;26.40
1055;DHT22;516;51.482;7.120;2023-06-14T01:19:26;17.10;26.70
1055;DHT22;516;51.482;7.120;2023-06-14T01:25:15;17.10;24.50
1055;DHT22;516;51.482;7.120;2023-06-14T01:31:04;17.00;26.10
1055;DHT22;516;51.482;7.120;2023-06-14T01:40:19;16.90;28.10
1055;DHT22;516;51.482;7.120;2023-06-14T01:46:08;16.60;31.80
1055;DHT22;516;51.482;7.120;2023-06-14T01:51:56;16.60;32.00
1055;DHT22;516;51.482;7.120;2023-06-14T01:57:44;16.50;32.00
1055;DHT22;516;51.482;7.120;2023-06-14T02:03:32;16.40;35.40
1055;DHT22;516;51.482;7.120;2023-06-14T02:09:20;16.40;33.90
1055;DHT22;516;51.482;7.120;2023-06-14T02:15:08;16.30;36.00
1055;DHT22;516;51.482;7.120;2023-06-14T02:20:57;16.20;37.10
1055;DHT22;516;51.482;7.120;2023-06-14T02:26:44;16.10;37.50
1055;DHT22;516;51.482;7.120;2023-06-14T02:32:32;16.00;39.60
1055;DHT22;516;51.482;7.120;2023-06-14T02:35:37;16.00;42.80
1055;DHT22;516;51.482;7.120;2023-06-14T02:38:03;15.90;42.00
1055;DHT22;516;51.482;7.120;2023-06-14T02:43:50;15.90;43.00
1055;DHT22;516;51.482;7.120;2023-06-14T02:49:38;15.90;41.10
1055;DHT22;516;51.482;7.120;2023-06-14T02:55:26;15.80;43.30
1055;DHT22;516;51.482;7.120;2023-06-14T03:01:14;15.70;45.50
1055;DHT22;516;51.482;7.120;2023-06-14T03:07:02;15.70;43.20
1055;DHT22;516;51.482;7.120;2023-06-14T03:12:50;15.60;46.40
1055;DHT22;516;51.482;7.120;2023-06-14T03:18:39;15.70;44.70
1055;DHT22;516;51.482;7.120;2023-06-14T03:24:27;15.60;46.90
1055;DHT22;516;51.482;7.120;2023-06-14T03:30:14;15.60;46.50
1055;DHT22;516;51.482;7.120;2023-06-14T03:45:53;15.50;51.40
1055;DHT22;516;51.482;7.120;2023-06-14T03:51:41;15.50;53.30
1055;DHT22;516;51.482;7.120;2023-06-14T03:57:30;15.50;54.20
1055;DHT22;516;51.482;7.120;2023-06-14T04:03:18;15.60;50.10
1055;DHT22;516;51.482;7.120;2023-06-14T04:09:07;15.70;47.00
1055;DHT22;516;51.482;7.120;2023-06-14T04:14:54;15.90;40.20
1055;DHT22;516;51.482;7.120;2023-06-14T04:20:42;16.00;38.00
1055;DHT22;516;51.482;7.120;2023-06-14T04:26:31;16.10;36.50
1055;DHT22;516;51.482;7.120;2023-06-14T04:32:21;16.30;34.50
1055;DHT22;516;51.482;7.120;2023-06-14T04:38:04;16.50;33.20
1055;DHT22;516;51.482;7.120;2023-06-14T04:43:52;16.80;29.10
1055;DHT22;516;51.482;7.120;2023-06-14T04:49:40;17.20;26.30
1055;DHT22;516;51.482;7.120;2023-06-14T04:55:28;17.70;22.10
1055;DHT22;516;51.482;7.120;2023-06-14T05:01:16;18.10;20.70
1055;DHT22;516;51.482;7.120;2023-06-14T05:07:04;18.30;19.50
1055;DHT22;516;51.482;7.120;2023-06-14T05:12:51;18.50;15.60
1055;DHT22;516;51.482;7.120;2023-06-14T05:18:40;19.00;13.60
1055;DHT22;516;51.482;7.120;2023-06-14T05:24:28;19.30;9.70
1055;DHT22;516;51.482;7.120;2023-06-14T05:30:20;19.90;8.80
1055;DHT22;516;51.482;7.120;2023-06-14T05:46:33;19.70;9.40
1055;DHT22;516;51.482;7.120;2023-06-14T05:52:20;19.70;9.00
1055;DHT22;516;51.482;7.120;2023-06-14T05:58:07;20.10;6.90
1055;DHT22;516;51.482;7.120;2023-06-14T06:03:55;20.70;5.00
1055;DHT22;516;51.482;7.120;2023-06-14T06:09:42;20.80;3.70
1055;DHT22;516;51.482;7.120;2023-06-14T06:15:30;20.80;3.50
1055;DHT22;516;51.482;7.120;2023-06-14T06:21:18;21.60;2.10
1055;DHT22;516;51.482;7.120;2023-06-14T06:27:05;21.70;1.00
1055;DHT22;516;51.482;7.120;2023-06-14T06:32:55;21.80;1.00
1055;DHT22;516;51.482;7.120;2023-06-14T06:35:38;22.00;1.00
1055;DHT22;516;51.482;7.120;2023-06-14T06:38:04;21.80;1.00
1055;DHT22;516;51.482;7.120;2023-06-14T06:43:51;21.50;1.00
1055;DHT22;516;51.482;7.120;2023-06-14T06:49:39;21.30;1.00
1055;DHT22;516;51.482;7.120;2023-06-14T06:55:27;21.90;1.00
1055;DHT22;516;51.482;7.120;2023-06-14T07:01:14;21.60;1.00
1055;DHT22;516;51.482;7.120;2023-06-14T07:07:03;21.90;1.00
1055;DHT22;516;51.482;7.120;2023-06-14T07:12:51;22.00;1.00
1055;DHT22;516;51.482;7.120;2023-06-14T07:18:39;22.50;1.00
1055;DHT22;516;51.482;7.120;2023-06-14T07:24:26;22.80;1.00
1055;DHT22;516;51.482;7.120;2023-06-14T07:30:15;23.20;1.00
1055;DHT22;516;51.482;7.120;2023-06-14T07:42:29;22.60;1.00
1055;DHT22;516;51.482;7.120;2023-06-14T07:48:16;23.50;1.00
1055;DHT22;516;51.482;7.120;2023-06-14T07:54:04;23.20;1.00
1055;DHT22;516;51.482;7.120;2023-06-14T07:59:54;23.00;1.00
1055;DHT22;516;51.482;7.120;2023-06-14T08:05:42;23.00;1.00
1055;DHT22;516;51.482;7.120;2023-06-14T08:11:29;23.50;1.00
1055;DHT22;516;51.482;7.120;2023-06-14T08:17:17;22.90;1.00
1055;DHT22;516;51.482;7.120;2023-06-14T08:23:05;23.20;1.00
1055;DHT22;516;51.482;7.120;2023-06-14T08:28:52;23.20;1.00
1055;DHT22;516;51.482;7.120;2023-06-14T08:34:40;23.30;1.00
1055;DHT22;516;51.482;7.120;2023-06-14T08:40:30;23.40;1.00
1055;DHT22;516;51.482;7.120;2023-06-14T08:49:45;23.70;1.00
1055;DHT22;516;51.482;7.120;2023-06-14T08:55:35;23.90;1.00
1055;DHT22;516;51.482;7.120;2023-06-14T09:01:25;23.80;1.00
1055;DHT22;516;51.482;7.120;2023-06-14T09:07:14;24.10;1.00
1055;DHT22;516;51.482;7.120;2023-06-14T09:13:02;24.60;1.00
1055;DHT22;516;51.482;7.120;2023-06-14T09:18:50;24.90;1.00
1055;DHT22;516;51.482;7.120;2023-06-14T09:24:38;24.10;1.00
1055;DHT22;516;51.482;7.120;2023-06-14T09:30:25;24.50;1.00
1055;DHT22;516;51.482;7.120;2023-06-14T09:36:21;24.50;1.00
1055;DHT22;516;51.482;7.120;2023-06-14T09:39:24;25.00;1.00
1055;DHT22;516;51.482;7.120;2023-06-14T09:41:51;24.90;1.00
1055;DHT22;516;51.482;7.120;2023-06-14T09:47:39;25.00;1.00
1055;DHT22;516;51.482;7.120;2023-06-14T09:53:29;24.80;1.00
1055;DHT22;516;51.482;7.120;2023-06-14T09:59:20;24.50;1.00
1055;DHT22;516;51.482;7.120;2023-06-14T10:05:11;24.50;1.00
1055;DHT22;516;51.482;7.120;2023-06-14T10:11:00;24.90;1.00
1055;DHT22;516;51.482;7.120;2023-06-14T10:23:27;25.00;1.00
1055;DHT22;516;51.482;7.120;2023-06-14T10:29:16;25.00;1.00
1055;DHT22;516;51.482;7.120;2023-06-14T10:35:07;25.20;1.00
1055;DHT22;516;51.482;7.120;2023-06-14T10:50:09;25.10;1.00
1055;DHT22;516;51.482;7.120;2023-06-14T11:02:53;25.20;1.00
1055;DHT22;516;51.482;7.120;2023-06-14T11:15:37;25.40;1.00
1055;DHT22;516;51.482;7.120;2023-06-14T11:21:25;25.20;1.00
1055;DHT22;516;51.482;7.120;2023-06-14T11:27:17;25.20;1.00
1055;DHT22;516;51.482;7.120;2023-06-14T11:33:09;25.10;1.00
1055;DHT22;516;51.482;7.120;2023-06-14T11:39:02;26.20;1.00
1055;DHT22;516;51.482;7.120;2023-06-14T11:44:51;25.80;1.00
1055;DHT22;516;51.482;7.120;2023-06-14T11:50:38;25.30;1.00
1055;DHT22;516;51.482;7.120;2023-06-14T11:56:26;25.90;1.00
1055;DHT22;516;51.482;7.120;2023-06-14T12:02:14;26.20;1.00
1055;DHT22;516;51.482;7.120;2023-06-14T12:08:03;25.80;1.00
1055;DHT22;516;51.482;7.120;2023-06-14T12:13:53;26.20;1.00
1055;DHT22;516;51.482;7.120;2023-06-14T12:19:42;26.60;1.00
1055;DHT22;516;51.482;7.120;2023-06-14T12:25:35;26.50;1.00
1055;DHT22;516;51.482;7.120;2023-06-14T12:31:23;27.00;1.00
1055;DHT22;516;51.482;7.120;2023-06-14T12:37:11;27.10;1.00
1055;DHT22;516;51.482;7.120;2023-06-14T12:46:21;26.40;1.00
1055;DHT22;516;51.482;7.120;2023-06-14T12:52:09;26.40;1.00
1055;DHT22;516;51.482;7.120;2023-06-14T12:57:57;26.90;1.00
1055;DHT22;516;51.482;7.120;2023-06-14T13:03:46;26.80;1.00
1055;DHT22;516;51.482;7.120;2023-06-14T13:09:34;27.00;1.00
1055;DHT22;516;51.482;7.120;2023-06-14T13:15:22;26.30;1.00
1055;DHT22;516;51.482;7.120;2023-06-14T13:21:10;26.80;1.00
1055;DHT22;516;51.482;7.120;2023-06-14T13:26:58;26.30;1.00
1055;DHT22;516;51.482;7.120;2023-06-14T13:32:47;26.40;1.00
1055;DHT22;516;51.482;7.120;2023-06-14T13:38:18;26.50;1.00
1055;DHT22;516;51.482;7.120;2023-06-14T13:44:06;26.40;1.00
1055;DHT22;516;51.482;7.120;2023-06-14T13:49:53;26.90;1.00
1055;DHT22;516;51.482;7.120;2023-06-14T13:55:41;26.70;1.00
1055;DHT22;516;51.482;7.120;2023-06-14T14:01:29;26.90;1.00
1055;DHT22;516;51.482;7.120;2023-06-14T14:07:17;26.60;1.00
1055;DHT22;516;51.482;7.120;2023-06-14T14:13:05;26.30;1.00
1055;DHT22;516;51.482;7.120;2023-06-14T14:18:53;26.90;1.00
1055;DHT22;516;51.482;7.120;2023-06-14T14:24:41;27.60;1.00
1055;DHT22;516;51.482;7.120;2023-06-14T14:30:29;25.50;1.00
1055;DHT22;516;51.482;7.120;2023-06-14T14:36:17;26.40;1.00
1055;DHT22;516;51.482;7.120;2023-06-14T14:48:48;26.90;1.00
1055;DHT22;516;51.482;7.120;2023-06-14T14:54:36;26.50;1.00
1055;DHT22;516;51.482;7.120;2023-06-14T15:00:24;26.40;1.00
1055;DHT22;516;51.482;7.120;2023-06-14T15:06:12;26.60;1.00
1055;DHT22;516;51.482;7.120;2023-06-14T15:12:00;26.40;1.00
1055;DHT22;516;51.482;7.120;2023-06-14T15:17:48;25.90;1.00
1055;DHT22;516;51.482;7.120;2023-06-14T15:23:36;26.60;1.00
1055;DHT22;516;51.482;7.120;2023-06-14T15:29:23;26.40;1.00
1055;DHT22;516;51.482;7.120;2023-06-14T15:35:11;26.10;1.00
1055;DHT22;516;51.482;7.120;2023-06-14T15:41:01;26.30;1.00
1055;DHT22;516;51.482;7.120;2023-06-14T15:46:49;26.40;1.00
1055;DHT22;516;51.482;7.120;2023-06-14T15:52:37;26.30;1.00
1055;DHT22;516;51.482;7.120;2023-06-14T15:58:25;26.40;1.00
1055;DHT22;516;51.482;7.120;2023-06-14T16:04:12;26.10;1.00
1055;DHT22;516;51.482;7.120;2023-06-14T16:10:00;26.20;1.00
1055;DHT22;516;51.482;7.120;2023-06-14T16:15:47;27.30;1.00
1055;DHT22;516;51.482;7.120;2023-06-14T16:21:36;26.80;1.00
1055;DHT22;516;51.482;7.120;2023-06-14T16:27:24;27.80;1.00
1055;DHT22;516;51.482;7.120;2023-06-14T16:33:12;25.70;1.00
1055;DHT22;516;51.482;7.120;2023-06-14T16:39:00;25.70;1.00
1055;DHT22;516;51.482;7.120;2023-06-14T16:41:56;25.50;1.00
1055;DHT22;516;51.482;7.120;2023-06-14T16:44:22;26.00;1.00
1055;DHT22;516;51.482;7.120;2023-06-14T16:50:10;25.40;1.00
1055;DHT22;516;51.482;7.120;2023-06-14T16:55:58;25.70;1.00
1055;DHT22;516;51.482;7.120;2023-06-14T17:01:46;25.70;1.00
1055;DHT22;516;51.482;7.120;2023-06-14T17:07:33;25.30;1.00
1055;DHT22;516;51.482;7.120;2023-06-14T17:13:21;25.20;1.00
1055;DHT22;516;51.482;7.120;2023-06-14T17:19:09;25.50;1.00
1055;DHT22;516;51.482;7.120;2023-06-14T17:24:57;25.20;1.00
1055;DHT22;516;51.482;7.120;2023-06-14T17:30:44;24.70;1.00
1055;DHT22;516;51.482;7.120;2023-06-14T17:36:32;24.50;1.00
1055;DHT22;516;51.482;7.120;2023-06-14T17:52:14;23.80;1.00
1055;DHT22;516;51.482;7.120;2023-06-14T17:58:02;23.70;1.00
1055;DHT22;516;51.482;7.120;2023-06-14T18:03:51;23.60;1.00
1055;DHT22;516;51.482;7.120;2023-06-14T18:09:38;23.50;1.00
1055;DHT22;516;51.482;7.120;2023-06-14T18:15:26;23.30;1.00
1055;DHT22;516;51.482;7.120;2023-06-14T18:21:14;23.10;1.00
1055;DHT22;516;51.482;7.120;2023-06-14T18:27:02;23.00;1.00
1055;DHT22;516;51.482;7.120;2023-06-14T18:32:51;23.00;1.00
1055;DHT22;516;51.482;7.120;2023-06-14T18:38:39;22.90;1.00
1055;DHT22;516;51.482;7.120;2023-06-14T18:44:22;22.80;1.00
1055;DHT22;516;51.482;7.120;2023-06-14T18:50:10;22.60;1.00
1055;DHT22;516;51.482;7.120;2023-06-14T18:55:58;22.50;1.00
1055;DHT22;516;51.482;7.120;2023-06-14T19:01:45;22.40;1.00
1055;DHT22;516;51.482;7.120;2023-06-14T19:07:33;22.30;1.00
1055;DHT22;516;51.482;7.120;2023-06-14T19:13:20;22.20;1.00
1055;DHT22;516;51.482;7.120;2023-06-14T19:19:08;22.00;1.00
1055;DHT22;516;51.482;7.120;2023-06-14T19:24:56;21.90;1.00
1055;DHT22;516;51.482;7.120;2023-06-14T19:30:44;21.70;1.00
1055;DHT22;516;51.482;7.120;2023-06-14T19:36:13;21.60;1.00
1055;DHT22;516;51.482;7.120;2023-06-14T19:52:10;21.30;1.00
1055;DHT22;516;51.482;7.120;2023-06-14T19:57:58;21.10;1.00
1055;DHT22;516;51.482;7.120;2023-06-14T20:03:46;20.90;1.00
1055;DHT22;516;51.482;7.120;2023-06-14T20:15:32;20.50;3.00
1055;DHT22;516;51.482;7.120;2023-06-14T20:17:58;20.40;2.80
1055;DHT22;516;51.482;7.120;2023-06-14T20:23:47;20.30;4.70
1055;DHT22;516;51.482;7.120;2023-06-14T20:29:35;20.10;5.60
1055;DHT22;516;51.482;7.120;2023-06-14T20:35:23;20.20;6.40
1055;DHT22;516;51.482;7.120;2023-06-14T20:41:11;20.20;6.60
1055;DHT22;516;51.482;7.120;2023-06-14T20:46:59;19.90;8.20
1055;DHT22;516;51.482;7.120;2023-06-14T20:52:48;19.90;9.50
1055;DHT22;516;51.482;7.120;2023-06-14T20:58:36;19.50;13.40
1055;DHT22;516;51.482;7.120;2023-06-14T21:04:24;19.40;14.90
1055;DHT22;516;51.482;7.120;2023-06-14T21:10:13;19.30;17.90
1055;DHT22;516;51.482;7.120;2023-06-14T21:16:09;19.10;21.50
1055;DHT22;516;51.482;7.120;2023-06-14T21:21:56;19.00;24.70
1055;DHT22;516;51.482;7.120;2023-06-14T21:27:44;18.80;30.20
1055;DHT22;516;51.482;7.120;2023-06-14T21:33:32;18.40;41.50
1055;DHT22;516;51.482;7.120;2023-06-14T21:39:20;18.20;55.20
1055;DHT22;516;51.482;7.120;2023-06-14T21:45:08;18.20;64.40
1055;DHT22;516;51.482;7.120;2023-06-14T21:50:57;18.00;80.20
1055;DHT22;516;51.482;7.120;2023-06-14T21:56:46;17.90;97.10
1055;DHT22;516;51.482;7.120;2023-06-14T22:02:34;17.60;99.90
1055;DHT22;516;51.482;7.120;2023-06-14T22:08:23;17.40;99.90
1055;DHT22;516;51.482;7.120;2023-06-14T22:17:37;17.00;99.90
1055;DHT22;516;51.482;7.120;2023-06-14T22:23:28;17.10;99.90
1055;DHT22;516;51.482;7.120;2023-06-14T22:29:36;16.90;99.90
1055;DHT22;516;51.482;7.120;2023-06-14T22:35:24;16.70;99.90
1055;DHT22;516;51.482;7.120;2023-06-14T22:41:12;16.50;99.90
1055;DHT22;516;51.482;7.120;2023-06-14T22:47:00;16.50;99.90
1055;DHT22;516;51.482;7.120;2023-06-14T22:52:49;16.40;99.90
1055;DHT22;516;51.482;7.120;2023-06-14T22:58:38;16.30;99.90
1055;DHT22;516;51.482;7.120;2023-06-14T23:04:27;16.20;99.90
1055;DHT22;516;51.482;7.120;2023-06-14T23:10:15;16.20;99.90
1055;DHT22;516;51.482;7.120;2023-06-14T23:16:05;16.30;99.90
1055;DHT22;516;51.482;7.120;2023-06-14T23:25:13;16.30;99.90
1055;DHT22;516;51.482;7.120;2023-06-14T23:31:02;16.20;99.90
1055;DHT22;516;51.482;7.120;2023-06-14T23:36:55;16.10;99.90
1055;DHT22;516;51.482;7.120;2023-06-14T23:42:43;16.00;99.90
1055;DHT22;516;51.482;7.120;2023-06-14T23:48:31;15.80;99.90
1055;DHT22;516;51.482;7.120;2023-06-14T23:54:19;15.80;99.90
